Time;durP1;ratioP1;P1;durP2;ratioP2;P2;SDS_P1;SDS_P2;PMS_P1;PMS_P2;Temp;Humidity;BMP_temperature;BMP_pressure;BME280_temperature;BME280_humidity;BME280_pressure;Samples;Min_cycle;Max_cycle;Signal;HPM_P1;HPM_P2
2021/05/09 00:00:43;;;;;;;7.53;4.22;;;7.10;99.90;;;;;;5057035;28;20045;-86
2021/05/09 00:03:09;;;;;;;9.07;5.15;;;7.00;99.90;;;;;;5054286;28;20385;-86
2021/05/09 00:05:35;;;;;;;8.15;4.65;;;6.90;99.90;;;;;;5065297;28;20029;-86
2021/05/09 00:08:02;;;;;;;9.43;5.03;;;6.80;99.90;;;;;;5054805;28;20417;-87
2021/05/09 00:10:28;;;;;;;6.60;5.10;;;6.80;99.90;;;;;;5054282;28;20029;-86
2021/05/09 00:12:54;;;;;;;6.65;5.32;;;6.90;99.90;;;;;;5054474;28;20029;-86
2021/05/09 00:15:23;;;;;;;7.75;5.22;;;6.70;99.90;;;;;;5053700;28;20498;-85
2021/05/09 00:17:50;;;;;;;7.78;4.85;;;6.60;99.90;;;;;;5054500;28;20052;-85
2021/05/09 00:20:17;;;;;;;8.32;5.70;;;6.60;99.90;;;;;;5071645;28;20481;-86
2021/05/09 00:22:43;;;;;;;7.93;6.05;;;6.60;99.90;;;;;;5060571;28;20029;-86
2021/05/09 00:25:10;;;;;;;8.90;5.53;;;6.70;99.90;;;;;;5075162;28;20041;-84
2021/05/09 00:27:37;;;;;;;6.90;4.95;;;6.80;99.90;;;;;;5091892;28;20036;-84
2021/05/09 00:30:04;;;;;;;7.05;5.32;;;6.80;99.90;;;;;;5096918;28;20016;-79
2021/05/09 00:32:31;;;;;;;8.07;4.85;;;6.80;99.90;;;;;;5085350;28;20041;-85
2021/05/09 00:34:57;;;;;;;9.65;6.50;;;6.80;99.90;;;;;;5078278;28;20019;-85
2021/05/09 00:37:23;;;;;;;7.35;5.53;;;6.70;99.90;;;;;;5077561;28;20013;-84
2021/05/09 00:39:49;;;;;;;10.55;5.75;;;6.60;99.90;;;;;;5063194;28;20043;-86
2021/05/09 00:42:17;;;;;;;9.57;5.53;;;6.50;99.90;;;;;;5062466;28;20458;-86
2021/05/09 00:44:43;;;;;;;7.15;5.30;;;6.50;99.90;;;;;;5059998;28;20418;-86
2021/05/09 00:47:12;;;;;;;8.02;5.38;;;6.40;99.90;;;;;;5064914;28;20047;-86
2021/05/09 00:49:39;;;;;;;10.48;5.75;;;6.30;99.90;;;;;;5053934;28;20051;-85
2021/05/09 00:52:08;;;;;;;10.20;4.97;;;6.30;99.90;;;;;;5055665;28;20033;-85
2021/05/09 00:54:51;;;;;;;6.40;5.32;;;6.30;99.90;;;;;;5058161;28;20040;-86
2021/05/09 00:57:19;;;;;;;6.82;5.30;;;6.20;99.90;;;;;;5066641;28;20479;-87
2021/05/09 00:59:49;;;;;;;6.03;5.05;;;6.30;99.90;;;;;;5053332;28;20390;-87
2021/05/09 01:02:16;;;;;;;9.80;5.57;;;6.40;99.90;;;;;;5062660;28;20040;-87
2021/05/09 01:04:44;;;;;;;8.30;5.18;;;6.40;99.90;;;;;;5060516;28;20028;-87
2021/05/09 01:07:14;;;;;;;8.82;5.15;;;6.50;99.90;;;;;;5052210;28;20072;-87
2021/05/09 01:09:41;;;;;;;10.30;5.20;;;6.50;99.90;;;;;;5054780;28;20037;-82
2021/05/09 01:12:12;;;;;;;8.05;5.97;;;6.40;99.90;;;;;;5066040;28;20512;-85
2021/05/09 01:14:40;;;;;;;9.55;5.03;;;6.40;99.90;;;;;;5051933;28;20379;-86
2021/05/09 01:17:08;;;;;;;7.63;5.10;;;6.40;99.90;;;;;;5052343;28;20381;-86
2021/05/09 01:19:35;;;;;;;8.27;6.03;;;6.30;99.90;;;;;;5068233;28;20040;-86
2021/05/09 01:22:07;;;;;;;10.95;6.38;;;6.30;99.90;;;;;;5052711;28;20041;-86
2021/05/09 01:24:33;;;;;;;9.77;6.05;;;6.40;99.90;;;;;;5069161;28;20385;-87
2021/05/09 01:27:01;;;;;;;7.95;5.35;;;6.40;99.90;;;;;;5066781;28;20052;-83
2021/05/09 01:29:28;;;;;;;8.65;5.63;;;6.40;99.90;;;;;;5053359;28;20036;-86
2021/05/09 01:31:55;;;;;;;7.97;5.70;;;6.50;99.90;;;;;;5051922;28;20041;-86
2021/05/09 01:34:21;;;;;;;9.50;6.85;;;6.40;99.90;;;;;;5065113;28;20037;-87
2021/05/09 01:36:48;;;;;;;7.45;5.80;;;6.30;99.90;;;;;;5051852;28;20040;-87
2021/05/09 01:39:15;;;;;;;7.78;6.28;;;6.30;99.90;;;;;;5052496;28;20045;-86
2021/05/09 01:41:41;;;;;;;10.07;6.28;;;6.20;99.90;;;;;;5052666;28;20041;-87
2021/05/09 01:44:07;;;;;;;9.25;6.78;;;6.20;99.90;;;;;;5051901;28;20052;-86
2021/05/09 01:46:34;;;;;;;9.43;7.45;;;6.20;99.90;;;;;;5066913;28;20052;-85
2021/05/09 01:49:00;;;;;;;9.80;7.78;;;6.20;99.90;;;;;;5052970;28;20215;-79
2021/05/09 01:51:26;;;;;;;9.82;7.00;;;6.10;99.90;;;;;;5054274;28;20052;-86
2021/05/09 01:53:53;;;;;;;10.32;6.75;;;6.10;99.90;;;;;;5054168;28;20028;-86
2021/05/09 01:56:21;;;;;;;13.98;7.70;;;6.10;99.90;;;;;;5054752;28;20059;-86
2021/05/09 01:58:47;;;;;;;9.48;7.43;;;6.10;99.90;;;;;;5064712;28;20037;-86
2021/05/09 02:01:17;;;;;;;7.82;6.60;;;6.10;99.90;;;;;;5061380;28;20052;-86
2021/05/09 02:03:59;;;;;;;8.30;6.28;;;6.10;99.90;;;;;;5054131;28;20044;-86
2021/05/09 02:06:29;;;;;;;10.45;6.43;;;6.10;99.90;;;;;;5067787;28;20084;-86
2021/05/09 02:08:56;;;;;;;9.50;7.65;;;6.10;99.90;;;;;;5069689;28;20044;-86
2021/05/09 02:11:30;;;;;;;11.40;6.20;;;6.10;99.90;;;;;;5051721;28;20045;-84
2021/05/09 02:14:00;;;;;;;10.30;6.25;;;6.20;99.90;;;;;;5051098;28;20044;-85
2021/05/09 02:16:31;;;;;;;10.18;6.40;;;6.20;99.90;;;;;;5057062;28;20036;-86
2021/05/09 02:18:58;;;;;;;10.30;7.05;;;6.20;99.90;;;;;;5067395;28;20478;-85
2021/05/09 02:21:35;;;;;;;9.57;8.07;;;6.10;99.90;;;;;;5069782;28;20055;-86
2021/05/09 02:24:04;;;;;;;9.95;7.40;;;6.00;99.90;;;;;;5068865;28;20386;-84
2021/05/09 02:26:30;;;;;;;9.00;6.80;;;5.90;99.90;;;;;;5066006;28;20056;-86
2021/05/09 02:28:57;;;;;;;8.65;6.57;;;5.80;99.90;;;;;;5055398;28;20049;-85
2021/05/09 02:31:23;;;;;;;11.55;7.80;;;5.80;99.90;;;;;;5061759;28;20028;-86
2021/05/09 02:33:49;;;;;;;8.63;6.82;;;5.70;99.90;;;;;;5065777;28;20045;-86
2021/05/09 02:36:16;;;;;;;9.25;6.85;;;5.70;99.90;;;;;;5059738;28;20041;-87
2021/05/09 02:38:42;;;;;;;11.93;7.88;;;5.70;99.90;;;;;;5063120;28;20036;-86
2021/05/09 02:41:09;;;;;;;10.65;7.22;;;5.80;99.90;;;;;;5055430;28;20033;-84
2021/05/09 02:43:35;;;;;;;10.15;7.25;;;6.00;99.90;;;;;;5054777;28;20486;-88
2021/05/09 02:46:01;;;;;;;8.80;7.43;;;6.00;99.90;;;;;;5055716;28;20029;-81
2021/05/09 02:48:28;;;;;;;9.95;7.10;;;6.10;99.90;;;;;;5077531;28;20497;-85
2021/05/09 02:50:54;;;;;;;8.73;6.97;;;6.00;99.90;;;;;;5073303;28;20060;-85
2021/05/09 02:53:22;;;;;;;9.02;7.10;;;6.00;99.90;;;;;;5068115;28;20052;-86
2021/05/09 02:55:50;;;;;;;10.18;6.47;;;6.00;99.90;;;;;;5086814;28;20047;-86
2021/05/09 02:58:17;;;;;;;7.75;6.28;;;6.00;99.90;;;;;;5098070;28;20044;-85
2021/05/09 03:00:44;;;;;;;10.18;6.85;;;6.00;99.90;;;;;;5075908;28;20052;-86
2021/05/09 03:03:17;;;;;;;8.85;6.32;;;6.00;99.90;;;;;;5073252;28;20055;-86
2021/05/09 03:05:44;;;;;;;7.72;6.85;;;6.10;99.90;;;;;;5057923;28;20052;-85
2021/05/09 03:08:11;;;;;;;9.27;6.90;;;6.10;99.90;;;;;;5066982;28;20049;-86
2021/05/09 03:10:41;;;;;;;9.27;7.20;;;6.20;99.90;;;;;;5066996;28;20055;-86
2021/05/09 03:13:07;;;;;;;8.48;6.43;;;6.20;99.90;;;;;;5065397;28;20047;-87
2021/05/09 03:15:34;;;;;;;9.00;6.22;;;6.20;99.90;;;;;;5060199;28;20409;-87
2021/05/09 03:18:00;;;;;;;8.20;6.80;;;6.30;99.90;;;;;;5067711;28;20036;-85
2021/05/09 03:20:26;;;;;;;7.82;6.03;;;6.30;99.90;;;;;;5069321;28;20045;-86
2021/05/09 03:22:52;;;;;;;8.00;5.80;;;6.30;99.90;;;;;;5055801;28;20025;-86
2021/05/09 03:25:19;;;;;;;8.13;6.07;;;6.30;99.90;;;;;;5055023;28;20040;-86
2021/05/09 03:27:45;;;;;;;8.30;5.75;;;6.20;99.90;;;;;;5054773;28;20044;-87
2021/05/09 03:30:12;;;;;;;7.95;6.07;;;6.30;99.90;;;;;;5055736;28;20047;-86
2021/05/09 03:32:38;;;;;;;7.65;6.28;;;6.30;99.90;;;;;;5055859;28;20048;-86
2021/05/09 03:35:07;;;;;;;8.55;6.55;;;6.30;99.90;;;;;;5081589;28;20016;-81
2021/05/09 03:37:35;;;;;;;12.40;7.53;;;6.30;99.90;;;;;;5082920;28;20053;-85
2021/05/09 03:40:01;;;;;;;9.35;7.03;;;6.30;99.90;;;;;;5068747;28;20422;-87
2021/05/09 03:42:28;;;;;;;9.85;6.65;;;6.30;99.90;;;;;;5055127;28;20041;-85
2021/05/09 03:44:54;;;;;;;7.78;5.70;;;6.20;99.90;;;;;;5055320;28;20474;-86
2021/05/09 03:47:25;;;;;;;8.05;6.47;;;6.20;99.90;;;;;;5054814;28;20047;-85
2021/05/09 03:49:56;;;;;;;10.48;7.30;;;6.20;99.90;;;;;;5053975;28;20053;-84
2021/05/09 03:52:23;;;;;;;8.70;6.47;;;6.10;99.90;;;;;;5068244;28;20341;-85
2021/05/09 03:54:50;;;;;;;8.13;6.38;;;6.00;99.90;;;;;;5054689;28;20359;-85
2021/05/09 03:57:16;;;;;;;8.25;6.63;;;5.90;99.90;;;;;;5054714;28;20040;-85
2021/05/09 03:59:42;;;;;;;9.77;7.35;;;5.90;99.90;;;;;;5055799;28;20037;-86
2021/05/09 04:02:09;;;;;;;8.38;7.00;;;5.90;99.90;;;;;;5065041;28;20032;-84
2021/05/09 04:04:35;;;;;;;8.15;7.00;;;6.00;99.90;;;;;;5054830;28;20048;-86
2021/05/09 04:07:02;;;;;;;12.82;7.32;;;6.10;99.90;;;;;;5054352;28;20060;-86
2021/05/09 04:09:28;;;;;;;8.88;7.38;;;6.20;99.90;;;;;;5054367;28;20386;-86
2021/05/09 04:11:54;;;;;;;10.95;7.20;;;6.20;99.90;;;;;;5054994;28;20037;-85
2021/05/09 04:14:20;;;;;;;10.63;7.53;;;6.20;99.90;;;;;;5073304;28;20039;-86
2021/05/09 04:16:47;;;;;;;9.50;7.32;;;6.20;99.90;;;;;;5057594;28;20048;-87
2021/05/09 04:19:13;;;;;;;9.73;7.50;;;6.20;99.90;;;;;;5061924;28;20025;-81
2021/05/09 04:21:40;;;;;;;9.95;7.43;;;6.40;99.90;;;;;;5060832;28;20036;-86
2021/05/09 04:24:08;;;;;;;9.57;7.88;;;6.40;99.90;;;;;;5055914;28;20045;-85
2021/05/09 04:26:34;;;;;;;12.32;7.43;;;6.40;99.90;;;;;;5062287;28;20032;-85
2021/05/09 04:29:01;;;;;;;10.98;6.32;;;6.50;99.90;;;;;;5055688;28;20481;-86
2021/05/09 04:31:27;;;;;;;8.68;6.50;;;6.60;99.90;;;;;;5076115;28;20044;-86
2021/05/09 04:33:53;;;;;;;8.88;6.97;;;6.70;99.90;;;;;;5064990;28;20049;-85
2021/05/09 04:36:20;;;;;;;9.98;7.57;;;6.80;99.90;;;;;;5054246;28;20037;-87
2021/05/09 04:38:46;;;;;;;8.95;6.30;;;7.00;99.90;;;;;;5054494;28;20048;-86
2021/05/09 04:41:12;;;;;;;13.25;8.90;;;7.20;99.90;;;;;;5056493;28;20462;-86
2021/05/09 04:43:39;;;;;;;9.07;6.85;;;7.90;99.90;;;;;;5054178;28;20037;-87
2021/05/09 04:46:05;;;;;;;8.90;6.55;;;9.00;99.90;;;;;;5054280;28;20044;-86
2021/05/09 04:48:32;;;;;;;6.53;5.47;;;9.80;99.90;;;;;;5066102;28;20377;-87
2021/05/09 04:50:58;;;;;;;6.25;5.13;;;10.50;99.60;;;;;;5064955;28;20032;-84
2021/05/09 04:53:28;;;;;;;6.75;4.78;;;11.10;94.50;;;;;;5053814;28;20216;-86
2021/05/09 04:55:59;;;;;;;7.68;5.00;;;11.60;93.10;;;;;;5054045;28;20029;-85
2021/05/09 04:58:25;;;;;;;;;;;12.50;89.50;;;;;;5053865;28;20037;-85
2021/05/09 05:00:59;;;;;;;12.65;10.00;;;13.20;83.90;;;;;;5054064;28;19908;-87
2021/05/09 05:03:25;;;;;;;13.05;9.27;;;12.90;82.00;;;;;;5065571;28;20039;-83
2021/05/09 05:05:52;;;;;;;6.28;5.63;;;13.40;80.90;;;;;;5061576;28;20458;-87
2021/05/09 05:08:18;;;;;;;6.22;5.07;;;14.50;76.60;;;;;;5052849;28;20048;-86
2021/05/09 05:10:45;;;;;;;5.82;4.30;;;15.80;68.90;;;;;;5053606;28;20359;-86
2021/05/09 05:13:25;;;;;;;5.43;3.83;;;16.30;66.40;;;;;;5062526;28;20401;-86
2021/05/09 05:15:53;;;;;;;5.53;3.92;;;15.60;66.90;;;;;;5053152;28;20458;-84
2021/05/09 05:18:20;;;;;;;6.78;5.40;;;15.20;69.20;;;;;;5062573;28;20470;-86
2021/05/09 05:20:47;;;;;;;5.43;4.63;;;15.40;69.70;;;;;;5053210;28;20036;-86
2021/05/09 05:23:14;;;;;;;5.47;4.88;;;16.50;65.20;;;;;;5052232;28;20040;-88
2021/05/09 05:25:41;;;;;;;6.32;4.75;;;16.70;65.70;;;;;;5075937;28;20032;-87
2021/05/09 05:28:08;;;;;;;6.25;5.55;;;18.00;60.70;;;;;;5059750;28;20051;-87
2021/05/09 05:30:35;;;;;;;6.40;5.22;;;18.00;58.70;;;;;;5055199;28;20029;-87
2021/05/09 05:33:01;;;;;;;5.65;4.53;;;17.50;60.40;;;;;;5054311;28;20368;-87
2021/05/09 05:35:28;;;;;;;6.35;5.00;;;17.30;61.20;;;;;;5053747;28;20033;-86
2021/05/09 05:37:55;;;;;;;5.60;5.00;;;17.20;61.70;;;;;;5053074;28;20459;-88
2021/05/09 05:40:23;;;;;;;5.53;4.75;;;17.30;60.40;;;;;;5052621;28;20053;-87
2021/05/09 05:42:50;;;;;;;5.93;4.63;;;17.80;60.30;;;;;;5053239;28;20040;-87
2021/05/09 05:45:17;;;;;;;6.53;5.30;;;17.70;60.50;;;;;;5066920;28;20037;-86
2021/05/09 05:47:44;;;;;;;6.15;5.15;;;18.00;59.30;;;;;;5057003;28;20049;-86
2021/05/09 05:50:11;;;;;;;11.40;9.52;;;18.40;58.30;;;;;;5051806;28;20041;-87
2021/05/09 05:52:37;;;;;;;8.48;5.65;;;19.10;56.50;;;;;;5053093;28;20033;-85
2021/05/09 05:55:05;;;;;;;6.38;5.47;;;18.70;56.40;;;;;;5064788;28;20033;-87
2021/05/09 05:57:31;;;;;;;7.18;4.75;;;18.40;56.60;;;;;;5053109;28;20060;-87
2021/05/09 05:59:57;;;;;;;7.43;5.40;;;19.90;55.10;;;;;;5052979;28;20021;-88
2021/05/09 06:02:23;;;;;;;7.38;5.75;;;21.80;51.70;;;;;;5059360;28;20032;-88
2021/05/09 06:04:49;;;;;;;8.15;6.72;;;22.40;49.60;;;;;;5064146;28;20474;-87
2021/05/09 06:07:16;;;;;;;9.57;8.23;;;21.50;51.00;;;;;;5052615;28;20049;-86
2021/05/09 06:09:42;;;;;;;6.40;5.25;;;21.90;50.30;;;;;;5066585;28;20048;-87
2021/05/09 06:12:09;;;;;;;6.22;4.93;;;21.10;52.00;;;;;;5054537;28;20060;-87
2021/05/09 06:14:35;;;;;;;5.85;4.07;;;21.10;51.50;;;;;;5052834;28;20383;-87
2021/05/09 06:17:02;;;;;;;5.00;4.22;;;21.70;51.10;;;;;;5052932;28;20446;-87
2021/05/09 06:19:28;;;;;;;4.55;3.92;;;22.10;50.30;;;;;;5053664;28;20029;-87
2021/05/09 06:21:54;;;;;;;6.88;4.40;;;21.80;50.00;;;;;;5053520;28;20044;-82
2021/05/09 06:24:20;;;;;;;6.25;5.32;;;22.40;49.90;;;;;;5052805;28;20064;-82
2021/05/09 06:26:49;;;;;;;4.90;4.43;;;23.50;48.00;;;;;;5051781;28;20044;-84
2021/05/09 06:29:15;;;;;;;13.90;12.60;;;24.00;46.60;;;;;;5051532;28;20390;-85
2021/05/09 06:31:41;;;;;;;10.32;9.15;;;23.40;47.20;;;;;;5051553;28;20040;-82
2021/05/09 06:34:07;;;;;;;10.55;7.63;;;21.80;49.90;;;;;;5051297;28;20056;-82
2021/05/09 06:36:34;;;;;;;16.95;4.10;;;22.40;49.20;;;;;;5051663;28;20045;-84
2021/05/09 06:39:02;;;;;;;5.38;4.40;;;22.20;48.70;;;;;;5064491;28;20398;-83
2021/05/09 06:41:28;;;;;;;4.72;4.10;;;21.00;52.20;;;;;;5051742;28;20037;-84
2021/05/09 06:43:57;;;;;;;7.32;4.28;;;21.40;50.60;;;;;;5053978;28;20459;-83
2021/05/09 06:46:24;;;;;;;5.95;4.32;;;21.80;49.30;;;;;;5061971;28;20032;-84
2021/05/09 06:48:51;;;;;;;10.02;8.73;;;21.20;50.60;;;;;;5058465;28;20041;-83
2021/05/09 06:51:20;;;;;;;4.82;3.80;;;22.30;49.80;;;;;;5065910;28;20044;-83
2021/05/09 06:53:47;;;;;;;5.80;3.63;;;24.20;46.90;;;;;;5059225;28;20040;-84
2021/05/09 06:56:13;;;;;;;5.20;3.65;;;23.30;47.90;;;;;;5051066;28;20033;-82
2021/05/09 06:58:40;;;;;;;5.72;3.78;;;22.70;48.10;;;;;;5067431;28;20463;-83
2021/05/09 07:01:07;;;;;;;6.13;3.22;;;23.60;48.10;;;;;;5057245;28;20043;-83
2021/05/09 07:03:33;;;;;;;5.03;3.25;;;24.70;45.20;;;;;;5073921;28;20421;-85
2021/05/09 07:06:00;;;;;;;4.25;3.50;;;24.90;45.30;;;;;;5070633;28;20037;-84
2021/05/09 07:08:26;;;;;;;8.60;2.95;;;24.60;45.70;;;;;;5054451;28;20049;-84
2021/05/09 07:10:52;;;;;;;3.40;2.75;;;24.50;45.40;;;;;;5059047;28;20051;-84
2021/05/09 07:13:18;;;;;;;4.97;3.45;;;23.50;46.70;;;;;;5075468;28;20096;-84
2021/05/09 07:15:46;;;;;;;4.03;2.75;;;23.80;46.40;;;;;;5073589;28;20039;-83
2021/05/09 07:18:14;;;;;;;3.75;2.70;;;24.00;45.80;;;;;;5075516;28;20063;-83
2021/05/09 07:20:44;;;;;;;4.07;2.65;;;25.10;45.60;;;;;;5065877;28;20032;-85
2021/05/09 07:23:12;;;;;;;5.68;3.30;;;24.70;44.60;;;;;;5054714;28;20300;-83
2021/05/09 07:25:39;;;;;;;4.25;3.10;;;24.30;46.80;;;;;;5055105;28;20051;-85
2021/05/09 07:28:12;;;;;;;4.70;3.92;;;24.60;45.20;;;;;;5063898;28;20521;-84
2021/05/09 07:30:42;;;;;;;4.13;1.73;;;24.50;46.30;;;;;;5061763;28;20037;-85
2021/05/09 07:33:08;;;;;;;5.95;4.15;;;24.90;44.80;;;;;;5053835;28;20060;-83
2021/05/09 07:35:35;;;;;;;25.55;23.13;;;24.50;45.70;;;;;;5055252;28;20025;-86
2021/05/09 07:38:03;;;;;;;3.45;2.38;;;25.10;44.40;;;;;;5062604;28;20044;-84
2021/05/09 07:40:29;;;;;;;7.68;5.13;;;24.80;45.10;;;;;;5066599;28;20048;-76
2021/05/09 07:42:55;;;;;;;4.20;3.15;;;25.50;45.30;;;;;;5054415;28;20033;-85
2021/05/09 07:45:23;;;;;;;2.75;1.60;;;25.00;44.40;;;;;;5068630;28;20044;-86
2021/05/09 07:47:50;;;;;;;8.00;6.55;;;24.50;45.70;;;;;;5054274;28;20056;-85
2021/05/09 07:50:18;;;;;;;2.85;1.88;;;24.80;45.90;;;;;;5053970;28;20398;-88
2021/05/09 07:52:46;;;;;;;12.88;8.77;;;24.80;45.20;;;;;;5075401;28;20033;-84
2021/05/09 07:55:13;;;;;;;5.22;3.35;;;24.70;46.30;;;;;;5054326;28;20459;-85
2021/05/09 07:57:40;;;;;;;4.97;2.83;;;25.30;45.90;;;;;;5054412;28;20041;-85
2021/05/09 08:00:11;;;;;;;27.40;22.63;;;25.80;45.00;;;;;;5066483;28;20475;-86
2021/05/09 08:02:45;;;;;;;3.20;2.30;;;25.50;44.90;;;;;;5053847;28;20041;-86
2021/05/09 08:05:12;;;;;;;50.00;39.70;;;25.50;44.60;;;;;;5063615;28;20333;-86
2021/05/09 08:07:49;;;;;;;6.80;4.97;;;24.40;46.20;;;;;;5065293;28;20033;-86
2021/05/09 08:10:15;;;;;;;25.40;21.85;;;24.30;46.70;;;;;;5053726;28;20052;-85
2021/05/09 08:12:41;;;;;;;3.70;1.50;;;24.90;46.10;;;;;;5053910;28;20037;-84
2021/05/09 08:15:08;;;;;;;5.25;4.22;;;25.30;45.70;;;;;;5053475;28;20406;-85
2021/05/09 08:17:34;;;;;;;8.80;5.78;;;25.60;45.40;;;;;;5069299;28;20096;-83
2021/05/09 08:20:01;;;;;;;9.75;7.30;;;26.30;44.20;;;;;;5073463;28;20036;-84
2021/05/09 08:22:27;;;;;;;9.40;7.78;;;26.10;44.60;;;;;;5061410;28;20270;-85
2021/05/09 08:24:53;;;;;;;8.25;5.90;;;25.90;45.70;;;;;;5057616;28;20450;-88
2021/05/09 08:27:20;;;;;;;4.85;2.75;;;25.70;45.10;;;;;;5063880;28;20029;-88
2021/05/09 08:29:46;;;;;;;23.75;19.13;;;25.90;44.80;;;;;;5059068;28;20382;-89
2021/05/09 08:32:13;;;;;;;12.95;11.70;;;25.20;44.80;;;;;;5055842;28;20135;-88
2021/05/09 08:34:40;;;;;;;2.08;1.23;;;25.90;44.90;;;;;;5054695;28;20470;-85
2021/05/09 08:37:06;;;;;;;2.80;1.17;;;26.20;44.10;;;;;;5059945;28;20040;-89
2021/05/09 08:39:33;;;;;;;3.33;2.40;;;26.70;43.60;;;;;;5052429;28;20052;-87
2021/05/09 08:41:59;;;;;;;6.20;5.60;;;26.90;43.60;;;;;;5052930;28;20052;-86
2021/05/09 08:44:25;;;;;;;7.43;6.72;;;26.20;43.50;;;;;;5060721;28;20028;-87
2021/05/09 08:46:52;;;;;;;3.65;3.30;;;26.40;44.20;;;;;;5053677;28;20064;-87
2021/05/09 08:49:21;;;;;;;2.53;1.20;;;26.50;43.60;;;;;;5052406;28;20037;-85
2021/05/09 08:51:48;;;;;;;3.17;1.23;;;27.00;43.30;;;;;;5053848;28;20037;-86
2021/05/09 08:54:14;;;;;;;3.28;0.88;;;26.50;44.00;;;;;;5056820;28;20496;-86
2021/05/09 08:56:40;;;;;;;3.83;1.77;;;26.40;43.70;;;;;;5070987;28;20041;-86
2021/05/09 08:59:08;;;;;;;2.47;1.10;;;26.60;43.60;;;;;;5056066;28;20048;-87
2021/05/09 09:01:39;;;;;;;1.98;0.90;;;27.60;42.20;;;;;;5053069;28;20029;-84
2021/05/09 09:04:06;;;;;;;3.28;2.53;;;28.00;42.50;;;;;;5052153;28;20032;-84
2021/05/09 09:06:48;;;;;;;11.15;8.80;;;28.00;42.20;;;;;;5052893;28;20025;-85
2021/05/09 09:09:25;;;;;;;6.07;5.57;;;27.40;42.80;;;;;;5052581;28;20485;-84
2021/05/09 09:11:56;;;;;;;4.18;2.80;;;27.20;42.50;;;;;;5053319;28;20029;-85
2021/05/09 09:14:27;;;;;;;2.92;1.02;;;27.90;42.40;;;;;;5054013;28;20051;-85
2021/05/09 09:17:16;;;;;;;2.45;1.02;;;27.30;42.30;;;;;;5053057;28;20041;-84
2021/05/09 09:19:58;;;;;;;2.58;1.15;;;27.40;42.70;;;;;;5072653;28;20040;-84
2021/05/09 09:22:25;;;;;;;1.85;0.77;;;27.40;42.40;;;;;;5037143;28;20037;-84
2021/05/09 09:25:06;;;;;;;3.00;1.60;;;26.80;43.30;;;;;;5051697;28;20053;-83
2021/05/09 09:27:32;;;;;;;2.17;1.10;;;28.10;42.20;;;;;;5052116;28;20029;-85
2021/05/09 09:30:00;;;;;;;4.35;1.30;;;28.00;42.40;;;;;;5065565;28;20044;-85
2021/05/09 09:32:26;;;;;;;1.85;0.93;;;27.80;42.00;;;;;;5052622;28;20037;-85
2021/05/09 09:34:53;;;;;;;2.60;1.00;;;27.70;42.30;;;;;;5052064;28;20037;-83
2021/05/09 09:37:20;;;;;;;1.27;0.73;;;27.40;42.40;;;;;;5058809;28;20044;-85
2021/05/09 09:39:49;;;;;;;1.10;0.70;;;28.00;41.60;;;;;;5054745;28;20040;-83
2021/05/09 09:42:34;;;;;;;1.55;0.90;;;27.40;42.00;;;;;;5053559;28;20132;-84
2021/05/09 09:45:22;;;;;;;2.30;0.88;;;27.60;42.50;;;;;;5071789;28;20037;-83
2021/05/09 09:47:56;;;;;;;1.98;0.80;;;28.10;42.50;;;;;;5068542;28;20071;-84
2021/05/09 09:51:01;;;;;;;1.60;0.80;;;28.60;42.40;;;;;;5051620;28;20041;-83
2021/05/09 09:53:28;;;;;;;2.78;0.70;;;28.30;42.20;;;;;;5008890;28;20416;-83
2021/05/09 09:56:20;;;;;;;2.65;1.05;;;28.00;42.50;;;;;;4994053;28;20392;-85
2021/05/09 09:58:51;;;;;;;2.95;1.02;;;27.20;42.60;;;;;;4991096;28;20149;-85
2021/05/09 10:01:28;;;;;;;1.67;0.90;;;26.50;43.00;;;;;;4993082;28;20042;-82
2021/05/09 10:04:14;;;;;;;1.50;0.75;;;27.10;42.80;;;;;;4996155;28;20065;-84
2021/05/09 10:06:40;;;;;;;3.47;0.90;;;27.10;42.60;;;;;;4995632;28;20034;-83
2021/05/09 10:09:08;;;;;;;2.60;1.67;;;27.20;43.00;;;;;;4992884;28;20042;-87
2021/05/09 10:11:36;;;;;;;2.92;1.30;;;27.70;42.10;;;;;;4992976;28;20077;-83
2021/05/09 10:14:03;;;;;;;1.85;0.95;;;28.10;42.00;;;;;;4995850;28;20507;-82
2021/05/09 10:16:37;;;;;;;1.02;0.70;;;28.10;42.40;;;;;;4996062;28;20042;-83
2021/05/09 10:19:11;;;;;;;3.42;0.90;;;28.00;42.50;;;;;;4993931;28;20043;-81
2021/05/09 10:21:42;;;;;;;5.00;2.78;;;27.30;42.70;;;;;;4993401;28;20034;-84
2021/05/09 10:24:20;;;;;;;1.35;0.77;;;26.80;43.20;;;;;;5020989;28;20041;-82
2021/05/09 10:27:07;;;;;;;2.72;1.10;;;27.10;43.80;;;;;;5074557;28;20028;-83
2021/05/09 10:29:43;;;;;;;2.13;1.00;;;27.00;43.10;;;;;;5053832;28;20044;-79
2021/05/09 10:32:35;;;;;;;1.50;1.00;;;27.30;42.90;;;;;;5052144;28;20048;-81
2021/05/09 10:35:03;;;;;;;1.20;0.80;;;27.40;42.60;;;;;;5070230;28;20040;-81
2021/05/09 10:37:48;;;;;;;1.48;1.10;;;27.60;42.70;;;;;;5058134;28;20361;-81
2021/05/09 10:40:17;;;;;;;2.15;0.98;;;27.70;42.30;;;;;;5063787;28;20053;-82
2021/05/09 10:42:43;;;;;;;4.27;1.00;;;28.10;42.00;;;;;;5063487;28;20053;-81
2021/05/09 10:45:10;;;;;;;4.43;1.20;;;27.90;41.30;;;;;;5062591;28;20033;-82
2021/05/09 10:47:36;;;;;;;3.13;1.33;;;27.90;41.70;;;;;;5057143;28;20033;-83
2021/05/09 10:50:14;;;;;;;2.25;1.10;;;27.70;41.70;;;;;;5078433;28;20056;-81
2021/05/09 10:52:44;;;;;;;3.10;1.02;;;27.50;41.70;;;;;;5069402;28;20033;-83
2021/05/09 10:55:37;;;;;;;2.70;1.00;;;27.50;41.40;;;;;;5069660;28;20021;-79
2021/05/09 10:58:04;;;;;;;1.67;0.82;;;27.50;41.30;;;;;;5088077;28;20025;-86
2021/05/09 11:01:00;;;;;;;2.28;0.90;;;27.50;41.90;;;;;;5070299;28;20040;-85
2021/05/09 11:03:39;;;;;;;1.52;0.68;;;27.50;41.50;;;;;;5043982;28;20040;-86
2021/05/09 11:06:06;;;;;;;2.10;1.10;;;27.50;41.80;;;;;;5056717;28;20040;-82
2021/05/09 11:08:45;;;;;;;2.63;1.45;;;27.60;42.10;;;;;;5073252;28;20350;-85
2021/05/09 11:11:29;;;;;;;3.63;1.00;;;27.70;42.00;;;;;;5072417;28;20110;-81
2021/05/09 11:16:32;;;;;;;2.13;1.00;;;28.00;41.70;;;;;;5055176;28;20040;-81
2021/05/09 11:19:18;;;;;;;2.15;1.00;;;28.30;42.10;;;;;;5073934;28;20516;-80
2021/05/09 11:21:45;;;;;;;2.35;1.58;;;28.30;41.60;;;;;;5061219;28;20024;-80
2021/05/09 11:24:22;;;;;;;1.88;1.30;;;28.20;41.00;;;;;;5072203;28;20033;-81
2021/05/09 11:26:50;;;;;;;1.92;1.17;;;28.00;41.00;;;;;;5066165;28;20033;-80
2021/05/09 11:29:27;;;;;;;2.70;1.33;;;27.60;40.60;;;;;;5055848;28;20045;-80
2021/05/09 11:31:56;;;;;;;2.38;1.20;;;27.80;40.70;;;;;;5055468;28;20144;-80
2021/05/09 11:34:24;;;;;;;2.37;0.80;;;28.00;41.00;;;;;;5056484;28;20029;-80
2021/05/09 11:36:52;;;;;;;3.58;1.15;;;28.30;40.40;;;;;;5069258;28;20045;-81
2021/05/09 11:39:33;;;;;;;2.67;1.35;;;28.30;39.90;;;;;;5058975;28;20047;-81
2021/05/09 11:42:03;;;;;;;2.47;0.60;;;28.50;39.90;;;;;;5075867;28;20055;-81
2021/05/09 11:44:32;;;;;;;2.05;0.82;;;28.70;39.60;;;;;;5059065;28;20056;-82
2021/05/09 11:46:59;;;;;;;2.13;0.73;;;28.70;39.30;;;;;;5055822;28;20056;-80
2021/05/09 11:49:29;;;;;;;2.65;0.75;;;28.80;38.10;;;;;;5054792;28;20458;-80
2021/05/09 11:52:05;;;;;;;2.72;0.65;;;28.80;38.40;;;;;;5057611;28;20041;-79
2021/05/09 11:54:43;;;;;;;2.97;0.98;;;28.90;37.60;;;;;;5056315;28;20048;-80
2021/05/09 11:57:10;;;;;;;1.40;0.85;;;29.10;38.20;;;;;;5054579;28;20036;-80
2021/05/09 11:59:53;;;;;;;3.00;1.70;;;29.30;38.00;;;;;;5062730;28;20036;-80
2021/05/09 12:02:24;;;;;;;1.67;0.70;;;29.40;38.00;;;;;;5054073;28;20032;-83
2021/05/09 12:04:56;;;;;;;2.30;0.90;;;29.20;37.40;;;;;;5055179;28;20044;-81
2021/05/09 12:07:24;;;;;;;3.58;1.00;;;29.10;37.80;;;;;;5062650;28;20465;-82
2021/05/09 12:10:04;;;;;;;2.63;0.90;;;29.20;37.80;;;;;;5055068;28;20041;-82
2021/05/09 12:12:33;;;;;;;2.55;0.90;;;29.40;38.40;;;;;;5053571;28;20036;-82
2021/05/09 12:15:12;;;;;;;3.95;0.95;;;29.40;37.80;;;;;;5054650;28;20044;-82
2021/05/09 12:17:46;;;;;;;2.03;1.17;;;29.40;38.20;;;;;;5068350;28;20036;-82
2021/05/09 12:20:37;;;;;;;4.47;1.23;;;29.60;38.40;;;;;;5059430;28;20049;-83
2021/05/09 12:23:06;;;;;;;2.55;1.20;;;29.80;37.90;;;;;;5047765;28;20048;-81
2021/05/09 12:25:40;;;;;;;3.22;1.17;;;29.60;37.90;;;;;;5062499;28;20033;-80
2021/05/09 12:28:16;;;;;;;1.92;0.75;;;29.20;38.40;;;;;;5057553;28;20033;-81
2021/05/09 12:30:45;;;;;;;1.35;0.82;;;28.90;38.80;;;;;;5053895;28;20021;-82
2021/05/09 12:33:11;;;;;;;2.85;1.10;;;28.90;38.80;;;;;;5054042;28;20060;-80
2021/05/09 12:35:42;;;;;;;2.50;1.00;;;28.80;39.10;;;;;;5053838;28;20037;-81
2021/05/09 12:38:08;;;;;;;1.50;0.80;;;28.90;39.10;;;;;;5062325;28;20032;-81
2021/05/09 12:40:37;;;;;;;1.38;0.90;;;29.00;38.50;;;;;;5053506;28;20355;-81
2021/05/09 12:43:10;;;;;;;0.93;0.67;;;29.20;38.20;;;;;;5065488;28;20036;-81
2021/05/09 12:45:44;;;;;;;2.75;0.82;;;29.50;38.30;;;;;;5053229;28;20109;-81
2021/05/09 12:48:30;;;;;;;3.65;1.05;;;29.70;37.70;;;;;;5053814;28;20033;-81
2021/05/09 12:51:14;;;;;;;2.15;1.20;;;29.40;37.50;;;;;;5067290;28;20373;-80
2021/05/09 12:53:46;;;;;;;1.80;0.90;;;29.10;37.70;;;;;;5065933;28;20044;-80
2021/05/09 12:56:32;;;;;;;3.28;1.38;;;29.40;37.60;;;;;;5067704;28;20048;-81
2021/05/09 12:59:17;;;;;;;3.20;0.93;;;29.30;37.40;;;;;;5053277;28;20037;-81
2021/05/09 13:01:58;;;;;;;3.95;1.00;;;28.90;37.60;;;;;;5063114;28;20040;-80
2021/05/09 13:04:35;;;;;;;4.20;1.17;;;29.00;37.80;;;;;;5053133;28;20025;-81